sensor_id;sensor_type;location;lat;lon;timestamp;P1;durP1;ratioP1;P2;durP2;ratioP2
28958;SDS011;16066;0.000;0.000;2022-07-29T00:00:57;2.67;;;1.60;;
28958;SDS011;16066;0.000;0.000;2022-07-29T00:03:22;4.33;;;1.80;;
28958;SDS011;16066;0.000;0.000;2022-07-29T00:05:48;2.43;;;1.57;;
28958;SDS011;16066;0.000;0.000;2022-07-29T00:08:13;5.03;;;1.90;;
28958;SDS011;16066;0.000;0.000;2022-07-29T00:10:40;2.87;;;1.70;;
28958;SDS011;16066;0.000;0.000;2022-07-29T00:13:06;4.83;;;1.70;;
28958;SDS011;16066;0.000;0.000;2022-07-29T00:15:32;3.27;;;1.90;;
28958;SDS011;16066;0.000;0.000;2022-07-29T00:17:57;9.57;;;2.47;;
28958;SDS011;16066;0.000;0.000;2022-07-29T00:20:23;3.73;;;1.80;;
28958;SDS011;16066;0.000;0.000;2022-07-29T00:22:48;6.70;;;2.10;;
28958;SDS011;16066;0.000;0.000;2022-07-29T00:25:14;5.30;;;2.03;;
28958;SDS011;16066;0.000;0.000;2022-07-29T00:27:39;4.03;;;1.90;;
28958;SDS011;16066;0.000;0.000;2022-07-29T00:30:05;6.37;;;2.30;;
28958;SDS011;16066;0.000;0.000;2022-07-29T00:32:32;4.07;;;1.60;;
28958;SDS011;16066;0.000;0.000;2022-07-29T00:34:57;6.13;;;2.13;;
28958;SDS011;16066;0.000;0.000;2022-07-29T00:37:42;2.83;;;1.77;;
28958;SDS011;16066;0.000;0.000;2022-07-29T00:40:07;6.47;;;1.87;;
28958;SDS011;16066;0.000;0.000;2022-07-29T00:42:43;3.93;;;2.10;;
28958;SDS011;16066;0.000;0.000;2022-07-29T00:45:10;3.13;;;1.77;;
28958;SDS011;16066;0.000;0.000;2022-07-29T00:47:36;4.60;;;1.87;;
28958;SDS011;16066;0.000;0.000;2022-07-29T00:50:03;4.53;;;1.80;;
28958;SDS011;16066;0.000;0.000;2022-07-29T00:52:30;15.07;;;2.83;;
28958;SDS011;16066;0.000;0.000;2022-07-29T00:54:56;6.40;;;1.90;;
28958;SDS011;16066;0.000;0.000;2022-07-29T00:57:22;6.03;;;1.77;;
28958;SDS011;16066;0.000;0.000;2022-07-29T00:59:47;5.67;;;1.70;;
28958;SDS011;16066;0.000;0.000;2022-07-29T01:02:13;6.43;;;2.10;;
28958;SDS011;16066;0.000;0.000;2022-07-29T01:04:38;2.73;;;2.00;;
28958;SDS011;16066;0.000;0.000;2022-07-29T01:07:05;11.17;;;2.20;;
28958;SDS011;16066;0.000;0.000;2022-07-29T01:09:32;5.03;;;1.87;;
28958;SDS011;16066;0.000;0.000;2022-07-29T01:11:57;4.43;;;1.87;;
28958;SDS011;16066;0.000;0.000;2022-07-29T01:14:24;6.37;;;2.30;;
28958;SDS011;16066;0.000;0.000;2022-07-29T01:16:51;3.30;;;2.10;;
28958;SDS011;16066;0.000;0.000;2022-07-29T01:31:03;3.17;;;1.80;;
28958;SDS011;16066;0.000;0.000;2022-07-29T01:33:30;2.80;;;1.60;;
28958;SDS011;16066;0.000;0.000;2022-07-29T01:36:17;3.63;;;2.00;;
28958;SDS011;16066;0.000;0.000;2022-07-29T01:39:10;7.97;;;2.43;;
28958;SDS011;16066;0.000;0.000;2022-07-29T01:41:47;7.07;;;1.90;;
28958;SDS011;16066;0.000;0.000;2022-07-29T01:44:18;5.90;;;1.80;;
28958;SDS011;16066;0.000;0.000;2022-07-29T01:46:49;4.03;;;2.20;;
28958;SDS011;16066;0.000;0.000;2022-07-29T01:49:24;6.90;;;1.97;;
28958;SDS011;16066;0.000;0.000;2022-07-29T01:51:54;2.60;;;2.07;;
28958;SDS011;16066;0.000;0.000;2022-07-29T01:54:35;5.03;;;1.90;;
28958;SDS011;16066;0.000;0.000;2022-07-29T01:57:08;4.37;;;2.03;;
28958;SDS011;16066;0.000;0.000;2022-07-29T01:59:35;14.13;;;2.07;;
28958;SDS011;16066;0.000;0.000;2022-07-29T02:02:03;3.10;;;1.90;;
28958;SDS011;16066;0.000;0.000;2022-07-29T02:04:33;4.60;;;2.07;;
28958;SDS011;16066;0.000;0.000;2022-07-29T02:07:01;7.50;;;2.17;;
28958;SDS011;16066;0.000;0.000;2022-07-29T02:09:30;5.10;;;2.40;;
28958;SDS011;16066;0.000;0.000;2022-07-29T02:11:59;7.50;;;1.93;;
28958;SDS011;16066;0.000;0.000;2022-07-29T02:14:26;4.57;;;1.83;;
28958;SDS011;16066;0.000;0.000;2022-07-29T02:16:56;6.77;;;1.90;;
28958;SDS011;16066;0.000;0.000;2022-07-29T02:19:25;6.33;;;2.20;;
28958;SDS011;16066;0.000;0.000;2022-07-29T02:21:51;7.53;;;2.00;;
28958;SDS011;16066;0.000;0.000;2022-07-29T02:24:18;6.30;;;2.03;;
28958;SDS011;16066;0.000;0.000;2022-07-29T02:26:47;4.70;;;1.90;;
28958;SDS011;16066;0.000;0.000;2022-07-29T02:29:14;3.23;;;1.90;;
28958;SDS011;16066;0.000;0.000;2022-07-29T02:31:41;3.30;;;1.80;;
28958;SDS011;16066;0.000;0.000;2022-07-29T02:34:09;4.47;;;1.70;;
28958;SDS011;16066;0.000;0.000;2022-07-29T02:36:36;4.90;;;2.40;;
28958;SDS011;16066;0.000;0.000;2022-07-29T02:39:02;3.50;;;1.80;;
28958;SDS011;16066;0.000;0.000;2022-07-29T02:44:11;11.80;;;1.93;;
28958;SDS011;16066;0.000;0.000;2022-07-29T02:49:32;6.10;;;1.93;;
28958;SDS011;16066;0.000;0.000;2022-07-29T02:52:02;7.70;;;1.57;;
28958;SDS011;16066;0.000;0.000;2022-07-29T02:54:42;5.17;;;1.90;;
28958;SDS011;16066;0.000;0.000;2022-07-29T02:57:28;4.50;;;1.73;;
28958;SDS011;16066;0.000;0.000;2022-07-29T02:59:57;3.17;;;1.80;;
28958;SDS011;16066;0.000;0.000;2022-07-29T03:02:25;5.30;;;2.00;;
28958;SDS011;16066;0.000;0.000;2022-07-29T03:04:53;8.20;;;2.07;;
28958;SDS011;16066;0.000;0.000;2022-07-29T03:07:21;5.87;;;2.30;;
28958;SDS011;16066;0.000;0.000;2022-07-29T03:09:47;11.30;;;2.17;;
28958;SDS011;16066;0.000;0.000;2022-07-29T03:12:14;4.00;;;1.93;;
28958;SDS011;16066;0.000;0.000;2022-07-29T03:14:41;3.17;;;1.70;;
28958;SDS011;16066;0.000;0.000;2022-07-29T03:17:07;3.57;;;1.90;;
28958;SDS011;16066;0.000;0.000;2022-07-29T03:19:34;4.53;;;1.93;;
28958;SDS011;16066;0.000;0.000;2022-07-29T03:22:00;8.53;;;2.53;;
28958;SDS011;16066;0.000;0.000;2022-07-29T03:24:27;6.40;;;1.90;;
28958;SDS011;16066;0.000;0.000;2022-07-29T03:26:54;7.73;;;2.17;;
28958;SDS011;16066;0.000;0.000;2022-07-29T03:29:21;3.80;;;2.40;;
28958;SDS011;16066;0.000;0.000;2022-07-29T03:31:46;6.07;;;2.20;;
28958;SDS011;16066;0.000;0.000;2022-07-29T03:34:12;5.70;;;1.80;;
28958;SDS011;16066;0.000;0.000;2022-07-29T03:36:37;2.50;;;1.83;;
28958;SDS011;16066;0.000;0.000;2022-07-29T03:39:03;4.40;;;2.00;;
28958;SDS011;16066;0.000;0.000;2022-07-29T03:41:30;7.87;;;1.93;;
28958;SDS011;16066;0.000;0.000;2022-07-29T03:43:56;3.90;;;2.83;;
28958;SDS011;16066;0.000;0.000;2022-07-29T03:46:23;3.50;;;2.07;;
28958;SDS011;16066;0.000;0.000;2022-07-29T03:48:55;4.00;;;1.93;;
28958;SDS011;16066;0.000;0.000;2022-07-29T03:51:25;4.17;;;1.90;;
28958;SDS011;16066;0.000;0.000;2022-07-29T03:53:51;4.27;;;2.03;;
28958;SDS011;16066;0.000;0.000;2022-07-29T03:56:17;6.60;;;2.20;;
28958;SDS011;16066;0.000;0.000;2022-07-29T03:58:46;7.43;;;1.90;;
28958;SDS011;16066;0.000;0.000;2022-07-29T04:01:15;3.83;;;2.10;;
28958;SDS011;16066;0.000;0.000;2022-07-29T04:03:42;4.03;;;1.90;;
28958;SDS011;16066;0.000;0.000;2022-07-29T04:06:10;3.50;;;2.00;;
28958;SDS011;16066;0.000;0.000;2022-07-29T04:08:35;3.50;;;1.93;;
28958;SDS011;16066;0.000;0.000;2022-07-29T04:11:01;4.63;;;2.17;;
28958;SDS011;16066;0.000;0.000;2022-07-29T04:13:28;7.37;;;2.23;;
28958;SDS011;16066;0.000;0.000;2022-07-29T04:15:54;7.23;;;2.20;;
28958;SDS011;16066;0.000;0.000;2022-07-29T04:18:19;7.17;;;1.90;;
28958;SDS011;16066;0.000;0.000;2022-07-29T04:20:45;5.67;;;2.43;;
28958;SDS011;16066;0.000;0.000;2022-07-29T04:23:11;3.80;;;2.30;;
28958;SDS011;16066;0.000;0.000;2022-07-29T04:25:37;8.43;;;2.90;;
28958;SDS011;16066;0.000;0.000;2022-07-29T04:28:06;3.57;;;1.80;;
28958;SDS011;16066;0.000;0.000;2022-07-29T04:30:32;4.57;;;2.17;;
28958;SDS011;16066;0.000;0.000;2022-07-29T04:33:00;7.50;;;2.60;;
28958;SDS011;16066;0.000;0.000;2022-07-29T04:35:27;9.70;;;2.50;;
28958;SDS011;16066;0.000;0.000;2022-07-29T04:37:54;7.73;;;2.20;;
28958;SDS011;16066;0.000;0.000;2022-07-29T04:40:19;5.90;;;2.23;;
28958;SDS011;16066;0.000;0.000;2022-07-29T04:42:45;4.37;;;2.50;;
28958;SDS011;16066;0.000;0.000;2022-07-29T04:45:10;8.70;;;2.70;;
28958;SDS011;16066;0.000;0.000;2022-07-29T04:47:36;6.13;;;2.13;;
28958;SDS011;16066;0.000;0.000;2022-07-29T04:50:02;4.10;;;2.20;;
28958;SDS011;16066;0.000;0.000;2022-07-29T04:52:28;8.43;;;2.47;;
28958;SDS011;16066;0.000;0.000;2022-07-29T04:54:53;7.30;;;2.50;;
28958;SDS011;16066;0.000;0.000;2022-07-29T04:57:19;9.23;;;1.93;;
28958;SDS011;16066;0.000;0.000;2022-07-29T04:59:44;6.30;;;2.07;;
28958;SDS011;16066;0.000;0.000;2022-07-29T05:02:10;4.20;;;2.10;;
28958;SDS011;16066;0.000;0.000;2022-07-29T05:04:35;4.30;;;2.20;;
28958;SDS011;16066;0.000;0.000;2022-07-29T05:07:01;5.23;;;2.03;;
28958;SDS011;16066;0.000;0.000;2022-07-29T05:09:26;3.97;;;2.00;;
28958;SDS011;16066;0.000;0.000;2022-07-29T05:11:52;5.23;;;2.10;;
28958;SDS011;16066;0.000;0.000;2022-07-29T05:14:17;4.90;;;1.87;;
28958;SDS011;16066;0.000;0.000;2022-07-29T05:16:43;7.23;;;2.20;;
28958;SDS011;16066;0.000;0.000;2022-07-29T05:19:08;5.70;;;2.17;;
28958;SDS011;16066;0.000;0.000;2022-07-29T05:21:34;6.43;;;1.87;;
28958;SDS011;16066;0.000;0.000;2022-07-29T05:23:59;4.93;;;1.70;;
28958;SDS011;16066;0.000;0.000;2022-07-29T05:26:25;6.70;;;2.40;;
28958;SDS011;16066;0.000;0.000;2022-07-29T05:28:51;6.03;;;1.77;;
28958;SDS011;16066;0.000;0.000;2022-07-29T05:31:17;17.13;;;2.30;;
28958;SDS011;16066;0.000;0.000;2022-07-29T05:33:42;5.30;;;2.10;;
28958;SDS011;16066;0.000;0.000;2022-07-29T05:36:08;7.73;;;2.40;;
28958;SDS011;16066;0.000;0.000;2022-07-29T05:38:34;8.03;;;2.50;;
28958;SDS011;16066;0.000;0.000;2022-07-29T05:41:00;6.50;;;2.40;;
28958;SDS011;16066;0.000;0.000;2022-07-29T05:43:26;3.87;;;2.10;;
28958;SDS011;16066;0.000;0.000;2022-07-29T05:45:53;5.70;;;2.10;;
28958;SDS011;16066;0.000;0.000;2022-07-29T05:48:19;7.93;;;2.57;;
28958;SDS011;16066;0.000;0.000;2022-07-29T05:50:44;4.80;;;2.13;;
28958;SDS011;16066;0.000;0.000;2022-07-29T05:53:10;8.67;;;2.53;;
28958;SDS011;16066;0.000;0.000;2022-07-29T05:55:35;9.40;;;2.20;;
28958;SDS011;16066;0.000;0.000;2022-07-29T05:58:01;4.80;;;2.23;;
28958;SDS011;16066;0.000;0.000;2022-07-29T06:00:27;3.23;;;1.80;;
28958;SDS011;16066;0.000;0.000;2022-07-29T06:02:52;7.17;;;1.93;;
28958;SDS011;16066;0.000;0.000;2022-07-29T06:05:18;5.23;;;2.00;;
28958;SDS011;16066;0.000;0.000;2022-07-29T06:07:43;3.13;;;1.70;;
28958;SDS011;16066;0.000;0.000;2022-07-29T06:10:09;10.40;;;2.10;;
28958;SDS011;16066;0.000;0.000;2022-07-29T06:12:35;3.53;;;2.30;;
28958;SDS011;16066;0.000;0.000;2022-07-29T06:15:01;4.20;;;1.93;;
28958;SDS011;16066;0.000;0.000;2022-07-29T06:17:27;6.57;;;2.53;;
28958;SDS011;16066;0.000;0.000;2022-07-29T06:19:52;4.63;;;2.00;;
28958;SDS011;16066;0.000;0.000;2022-07-29T06:22:18;4.87;;;2.37;;
28958;SDS011;16066;0.000;0.000;2022-07-29T06:24:43;5.60;;;2.07;;
28958;SDS011;16066;0.000;0.000;2022-07-29T06:27:09;4.87;;;2.40;;
28958;SDS011;16066;0.000;0.000;2022-07-29T06:29:36;3.37;;;2.10;;
28958;SDS011;16066;0.000;0.000;2022-07-29T06:32:02;5.27;;;1.73;;
28958;SDS011;16066;0.000;0.000;2022-07-29T06:34:28;5.70;;;2.20;;
28958;SDS011;16066;0.000;0.000;2022-07-29T06:36:53;11.50;;;2.33;;
28958;SDS011;16066;0.000;0.000;2022-07-29T06:39:19;8.53;;;2.23;;
28958;SDS011;16066;0.000;0.000;2022-07-29T06:41:48;9.30;;;2.30;;
28958;SDS011;16066;0.000;0.000;2022-07-29T06:44:15;6.73;;;2.03;;
28958;SDS011;16066;0.000;0.000;2022-07-29T06:46:41;7.30;;;2.33;;
28958;SDS011;16066;0.000;0.000;2022-07-29T06:49:07;6.10;;;2.50;;
28958;SDS011;16066;0.000;0.000;2022-07-29T06:51:32;4.63;;;2.10;;
28958;SDS011;16066;0.000;0.000;2022-07-29T06:53:58;4.30;;;2.07;;
28958;SDS011;16066;0.000;0.000;2022-07-29T06:56:24;4.50;;;2.17;;
28958;SDS011;16066;0.000;0.000;2022-07-29T06:58:50;3.90;;;1.87;;
28958;SDS011;16066;0.000;0.000;2022-07-29T07:01:15;4.17;;;2.00;;
28958;SDS011;16066;0.000;0.000;2022-07-29T07:03:41;6.90;;;2.60;;
28958;SDS011;16066;0.000;0.000;2022-07-29T07:06:07;6.00;;;2.47;;
28958;SDS011;16066;0.000;0.000;2022-07-29T07:08:32;8.23;;;2.73;;
28958;SDS011;16066;0.000;0.000;2022-07-29T07:10:58;8.73;;;2.70;;
28958;SDS011;16066;0.000;0.000;2022-07-29T07:13:23;7.73;;;2.83;;
28958;SDS011;16066;0.000;0.000;2022-07-29T07:15:49;7.50;;;2.60;;
28958;SDS011;16066;0.000;0.000;2022-07-29T07:18:16;6.73;;;2.83;;
28958;SDS011;16066;0.000;0.000;2022-07-29T07:20:42;7.80;;;2.40;;
28958;SDS011;16066;0.000;0.000;2022-07-29T07:23:08;4.53;;;2.60;;
28958;SDS011;16066;0.000;0.000;2022-07-29T07:25:33;7.60;;;2.70;;
28958;SDS011;16066;0.000;0.000;2022-07-29T07:27:59;5.80;;;2.63;;
28958;SDS011;16066;0.000;0.000;2022-07-29T07:30:25;5.70;;;2.57;;
28958;SDS011;16066;0.000;0.000;2022-07-29T07:32:51;8.50;;;3.07;;
28958;SDS011;16066;0.000;0.000;2022-07-29T07:35:16;6.60;;;2.37;;
28958;SDS011;16066;0.000;0.000;2022-07-29T07:37:42;5.93;;;2.43;;
28958;SDS011;16066;0.000;0.000;2022-07-29T07:40:08;6.47;;;2.60;;
28958;SDS011;16066;0.000;0.000;2022-07-29T07:42:35;6.33;;;2.73;;
28958;SDS011;16066;0.000;0.000;2022-07-29T07:45:00;8.33;;;2.93;;
28958;SDS011;16066;0.000;0.000;2022-07-29T07:47:26;7.83;;;2.60;;
28958;SDS011;16066;0.000;0.000;2022-07-29T07:49:52;5.70;;;2.77;;
28958;SDS011;16066;0.000;0.000;2022-07-29T07:52:18;6.57;;;3.17;;
28958;SDS011;16066;0.000;0.000;2022-07-29T07:54:45;6.53;;;2.53;;
28958;SDS011;16066;0.000;0.000;2022-07-29T07:57:11;4.63;;;2.40;;
28958;SDS011;16066;0.000;0.000;2022-07-29T07:59:37;9.90;;;2.80;;
28958;SDS011;16066;0.000;0.000;2022-07-29T08:02:03;4.53;;;2.20;;
28958;SDS011;16066;0.000;0.000;2022-07-29T08:04:29;6.33;;;2.50;;
28958;SDS011;16066;0.000;0.000;2022-07-29T08:06:55;5.30;;;2.17;;
28958;SDS011;16066;0.000;0.000;2022-07-29T08:09:22;12.30;;;2.90;;
28958;SDS011;16066;0.000;0.000;2022-07-29T08:11:48;3.77;;;2.37;;
28958;SDS011;16066;0.000;0.000;2022-07-29T08:14:14;7.07;;;2.60;;
28958;SDS011;16066;0.000;0.000;2022-07-29T08:16:40;9.50;;;2.70;;
28958;SDS011;16066;0.000;0.000;2022-07-29T08:19:06;4.90;;;2.57;;
28958;SDS011;16066;0.000;0.000;2022-07-29T08:21:32;8.00;;;2.40;;
28958;SDS011;16066;0.000;0.000;2022-07-29T08:23:58;3.80;;;2.50;;
28958;SDS011;16066;0.000;0.000;2022-07-29T08:26:42;12.00;;;2.67;;
28958;SDS011;16066;0.000;0.000;2022-07-29T08:29:08;5.23;;;2.20;;
28958;SDS011;16066;0.000;0.000;2022-07-29T08:31:34;6.27;;;2.80;;
28958;SDS011;16066;0.000;0.000;2022-07-29T08:34:03;7.13;;;2.43;;
28958;SDS011;16066;0.000;0.000;2022-07-29T08:36:29;6.40;;;2.57;;
28958;SDS011;16066;0.000;0.000;2022-07-29T08:38:56;6.00;;;3.00;;
28958;SDS011;16066;0.000;0.000;2022-07-29T08:41:22;8.17;;;3.10;;
28958;SDS011;16066;0.000;0.000;2022-07-29T08:43:48;9.03;;;2.60;;
28958;SDS011;16066;0.000;0.000;2022-07-29T08:46:15;5.67;;;2.53;;
28958;SDS011;16066;0.000;0.000;2022-07-29T08:48:41;4.70;;;2.37;;
28958;SDS011;16066;0.000;0.000;2022-07-29T08:51:07;8.27;;;3.10;;
28958;SDS011;16066;0.000;0.000;2022-07-29T08:53:33;5.00;;;2.23;;
28958;SDS011;16066;0.000;0.000;2022-07-29T08:55:59;5.50;;;2.70;;
28958;SDS011;16066;0.000;0.000;2022-07-29T08:58:25;7.80;;;2.70;;
28958;SDS011;16066;0.000;0.000;2022-07-29T09:00:55;5.20;;;2.37;;
28958;SDS011;16066;0.000;0.000;2022-07-29T09:03:25;6.37;;;2.47;;
28958;SDS011;16066;0.000;0.000;2022-07-29T09:05:55;3.00;;;2.30;;
28958;SDS011;16066;0.000;0.000;2022-07-29T09:08:21;6.50;;;2.17;;
28958;SDS011;16066;0.000;0.000;2022-07-29T09:10:48;12.73;;;2.70;;
28958;SDS011;16066;0.000;0.000;2022-07-29T09:13:14;4.17;;;2.00;;
28958;SDS011;16066;0.000;0.000;2022-07-29T09:15:40;4.77;;;2.40;;
28958;SDS011;16066;0.000;0.000;2022-07-29T09:18:05;3.80;;;1.90;;
28958;SDS011;16066;0.000;0.000;2022-07-29T09:20:31;4.60;;;2.50;;
28958;SDS011;16066;0.000;0.000;2022-07-29T09:23:17;3.50;;;2.23;;
28958;SDS011;16066;0.000;0.000;2022-07-29T09:25:42;6.00;;;2.40;;
28958;SDS011;16066;0.000;0.000;2022-07-29T09:28:08;8.13;;;2.30;;
28958;SDS011;16066;0.000;0.000;2022-07-29T09:30:35;6.80;;;2.77;;
28958;SDS011;16066;0.000;0.000;2022-07-29T09:33:14;4.70;;;2.10;;
28958;SDS011;16066;0.000;0.000;2022-07-29T09:35:39;5.60;;;2.13;;
28958;SDS011;16066;0.000;0.000;2022-07-29T09:38:14;5.60;;;2.37;;
28958;SDS011;16066;0.000;0.000;2022-07-29T09:40:40;5.53;;;2.40;;
28958;SDS011;16066;0.000;0.000;2022-07-29T09:43:12;11.40;;;2.23;;
28958;SDS011;16066;0.000;0.000;2022-07-29T09:45:38;6.13;;;2.77;;
28958;SDS011;16066;0.000;0.000;2022-07-29T09:48:14;2.23;;;1.70;;
28958;SDS011;16066;0.000;0.000;2022-07-29T09:50:44;5.17;;;2.10;;
28958;SDS011;16066;0.000;0.000;2022-07-29T09:53:11;3.93;;;2.10;;
28958;SDS011;16066;0.000;0.000;2022-07-29T09:56:03;4.93;;;2.10;;
28958;SDS011;16066;0.000;0.000;2022-07-29T09:58:29;4.37;;;2.27;;
28958;SDS011;16066;0.000;0.000;2022-07-29T10:00:57;6.23;;;2.17;;
28958;SDS011;16066;0.000;0.000;2022-07-29T10:03:23;5.30;;;2.10;;
28958;SDS011;16066;0.000;0.000;2022-07-29T10:06:08;4.63;;;2.50;;
28958;SDS011;16066;0.000;0.000;2022-07-29T10:08:34;7.00;;;2.57;;
28958;SDS011;16066;0.000;0.000;2022-07-29T10:11:18;7.00;;;2.47;;
28958;SDS011;16066;0.000;0.000;2022-07-29T10:13:45;11.50;;;2.60;;
28958;SDS011;16066;0.000;0.000;2022-07-29T10:16:13;2.33;;;1.77;;
28958;SDS011;16066;0.000;0.000;2022-07-29T10:18:40;6.07;;;2.67;;
28958;SDS011;16066;0.000;0.000;2022-07-29T10:21:06;6.73;;;2.60;;
28958;SDS011;16066;0.000;0.000;2022-07-29T10:23:32;5.10;;;2.00;;
28958;SDS011;16066;0.000;0.000;2022-07-29T10:25:59;3.63;;;2.30;;
28958;SDS011;16066;0.000;0.000;2022-07-29T10:28:25;6.30;;;2.50;;
28958;SDS011;16066;0.000;0.000;2022-07-29T10:30:51;4.47;;;2.63;;
28958;SDS011;16066;0.000;0.000;2022-07-29T10:33:42;7.43;;;2.40;;
28958;SDS011;16066;0.000;0.000;2022-07-29T10:36:32;6.20;;;2.13;;
28958;SDS011;16066;0.000;0.000;2022-07-29T10:42:18;6.87;;;2.50;;
28958;SDS011;16066;0.000;0.000;2022-07-29T10:44:50;4.07;;;2.43;;
28958;SDS011;16066;0.000;0.000;2022-07-29T10:47:21;5.77;;;2.30;;
28958;SDS011;16066;0.000;0.000;2022-07-29T10:49:54;3.80;;;2.17;;
28958;SDS011;16066;0.000;0.000;2022-07-29T10:52:22;5.63;;;2.40;;
28958;SDS011;16066;0.000;0.000;2022-07-29T10:54:49;6.50;;;2.17;;
28958;SDS011;16066;0.000;0.000;2022-07-29T10:57:23;6.63;;;2.37;;
28958;SDS011;16066;0.000;0.000;2022-07-29T11:05:08;12.97;;;2.23;;
28958;SDS011;16066;0.000;0.000;2022-07-29T11:07:36;5.00;;;2.00;;
28958;SDS011;16066;0.000;0.000;2022-07-29T11:15:03;5.77;;;2.83;;
28958;SDS011;16066;0.000;0.000;2022-07-29T11:17:31;5.97;;;2.10;;
28958;SDS011;16066;0.000;0.000;2022-07-29T11:20:37;6.97;;;2.30;;
28958;SDS011;16066;0.000;0.000;2022-07-29T11:23:24;5.20;;;2.50;;
28958;SDS011;16066;0.000;0.000;2022-07-29T11:31:16;4.37;;;2.00;;
28958;SDS011;16066;0.000;0.000;2022-07-29T11:34:19;4.20;;;2.40;;
28958;SDS011;16066;0.000;0.000;2022-07-29T11:39:38;6.83;;;2.40;;
28958;SDS011;16066;0.000;0.000;2022-07-29T11:47:23;4.47;;;2.20;;
28958;SDS011;16066;0.000;0.000;2022-07-29T11:49:50;4.33;;;2.17;;
28958;SDS011;16066;0.000;0.000;2022-07-29T11:52:17;10.33;;;2.63;;
28958;SDS011;16066;0.000;0.000;2022-07-29T11:54:43;7.03;;;2.27;;
28958;SDS011;16066;0.000;0.000;2022-07-29T11:57:11;4.90;;;2.30;;
28958;SDS011;16066;0.000;0.000;2022-07-29T11:59:39;5.47;;;2.13;;
28958;SDS011;16066;0.000;0.000;2022-07-29T12:02:06;6.03;;;2.70;;
28958;SDS011;16066;0.000;0.000;2022-07-29T12:04:33;3.40;;;2.37;;
28958;SDS011;16066;0.000;0.000;2022-07-29T12:06:59;5.70;;;2.30;;
28958;SDS011;16066;0.000;0.000;2022-07-29T12:09:25;4.10;;;2.20;;
28958;SDS011;16066;0.000;0.000;2022-07-29T12:11:55;3.17;;;2.27;;
28958;SDS011;16066;0.000;0.000;2022-07-29T12:14:29;4.23;;;2.70;;
28958;SDS011;16066;0.000;0.000;2022-07-29T12:16:56;13.57;;;2.40;;
28958;SDS011;16066;0.000;0.000;2022-07-29T12:19:22;4.33;;;1.90;;
28958;SDS011;16066;0.000;0.000;2022-07-29T12:21:52;5.37;;;2.90;;
28958;SDS011;16066;0.000;0.000;2022-07-29T12:24:20;7.23;;;2.80;;
28958;SDS011;16066;0.000;0.000;2022-07-29T12:27:04;6.70;;;2.63;;
28958;SDS011;16066;0.000;0.000;2022-07-29T12:29:29;6.40;;;2.60;;
28958;SDS011;16066;0.000;0.000;2022-07-29T12:31:55;5.10;;;2.30;;
28958;SDS011;16066;0.000;0.000;2022-07-29T12:34:23;5.20;;;3.30;;
28958;SDS011;16066;0.000;0.000;2022-07-29T12:36:51;16.83;;;3.23;;
28958;SDS011;16066;0.000;0.000;2022-07-29T12:39:17;12.83;;;4.00;;
28958;SDS011;16066;0.000;0.000;2022-07-29T12:41:43;11.33;;;4.07;;
28958;SDS011;16066;0.000;0.000;2022-07-29T12:44:09;9.97;;;3.80;;
28958;SDS011;16066;0.000;0.000;2022-07-29T12:46:35;11.00;;;4.07;;
28958;SDS011;16066;0.000;0.000;2022-07-29T12:49:01;9.50;;;3.53;;
28958;SDS011;16066;0.000;0.000;2022-07-29T12:51:28;11.30;;;3.00;;
28958;SDS011;16066;0.000;0.000;2022-07-29T12:54:10;4.60;;;2.70;;
28958;SDS011;16066;0.000;0.000;2022-07-29T12:56:38;4.23;;;2.93;;
28958;SDS011;16066;0.000;0.000;2022-07-29T12:59:20;7.70;;;2.50;;
28958;SDS011;16066;0.000;0.000;2022-07-29T13:01:47;7.13;;;2.80;;
28958;SDS011;16066;0.000;0.000;2022-07-29T13:06:57;6.53;;;2.77;;
28958;SDS011;16066;0.000;0.000;2022-07-29T13:09:36;6.10;;;2.50;;
28958;SDS011;16066;0.000;0.000;2022-07-29T13:12:07;7.93;;;2.77;;
28958;SDS011;16066;0.000;0.000;2022-07-29T13:17:05;6.07;;;2.70;;
28958;SDS011;16066;0.000;0.000;2022-07-29T13:19:44;7.77;;;2.90;;
28958;SDS011;16066;0.000;0.000;2022-07-29T13:22:15;8.07;;;3.00;;
28958;SDS011;16066;0.000;0.000;2022-07-29T13:27:18;6.30;;;2.50;;
28958;SDS011;16066;0.000;0.000;2022-07-29T13:29:54;5.47;;;2.60;;
28958;SDS011;16066;0.000;0.000;2022-07-29T13:32:22;6.10;;;2.50;;
28958;SDS011;16066;0.000;0.000;2022-07-29T13:34:49;4.40;;;2.23;;
28958;SDS011;16066;0.000;0.000;2022-07-29T13:37:14;4.40;;;2.00;;
28958;SDS011;16066;0.000;0.000;2022-07-29T13:39:41;12.63;;;2.70;;
28958;SDS011;16066;0.000;0.000;2022-07-29T13:42:07;11.53;;;2.70;;
28958;SDS011;16066;0.000;0.000;2022-07-29T13:44:34;9.83;;;3.30;;
28958;SDS011;16066;0.000;0.000;2022-07-29T13:47:00;5.13;;;2.60;;
28958;SDS011;16066;0.000;0.000;2022-07-29T13:49:26;8.47;;;3.10;;
28958;SDS011;16066;0.000;0.000;2022-07-29T13:51:52;8.80;;;3.00;;
28958;SDS011;16066;0.000;0.000;2022-07-29T13:54:17;7.43;;;3.03;;
28958;SDS011;16066;0.000;0.000;2022-07-29T13:56:43;6.30;;;3.17;;
28958;SDS011;16066;0.000;0.000;2022-07-29T13:59:09;10.20;;;2.50;;
28958;SDS011;16066;0.000;0.000;2022-07-29T14:01:34;5.00;;;2.80;;
28958;SDS011;16066;0.000;0.000;2022-07-29T14:04:00;8.60;;;2.53;;
28958;SDS011;16066;0.000;0.000;2022-07-29T14:06:26;4.33;;;2.53;;
28958;SDS011;16066;0.000;0.000;2022-07-29T14:08:52;3.80;;;2.37;;
28958;SDS011;16066;0.000;0.000;2022-07-29T14:11:17;6.43;;;2.50;;
28958;SDS011;16066;0.000;0.000;2022-07-29T14:13:43;6.03;;;2.50;;
28958;SDS011;16066;0.000;0.000;2022-07-29T14:16:08;4.50;;;2.43;;
28958;SDS011;16066;0.000;0.000;2022-07-29T14:18:34;7.43;;;2.90;;
28958;SDS011;16066;0.000;0.000;2022-07-29T14:20:59;6.57;;;2.70;;
28958;SDS011;16066;0.000;0.000;2022-07-29T14:23:25;8.63;;;2.97;;
28958;SDS011;16066;0.000;0.000;2022-07-29T14:25:51;4.50;;;2.40;;
28958;SDS011;16066;0.000;0.000;2022-07-29T14:28:16;5.47;;;2.33;;
28958;SDS011;16066;0.000;0.000;2022-07-29T14:30:42;5.90;;;2.70;;
28958;SDS011;16066;0.000;0.000;2022-07-29T14:33:08;9.50;;;3.10;;
28958;SDS011;16066;0.000;0.000;2022-07-29T14:35:33;9.03;;;2.90;;
28958;SDS011;16066;0.000;0.000;2022-07-29T14:37:59;6.63;;;2.60;;
28958;SDS011;16066;0.000;0.000;2022-07-29T14:40:25;3.07;;;1.97;;
28958;SDS011;16066;0.000;0.000;2022-07-29T14:42:50;7.67;;;2.60;;
28958;SDS011;16066;0.000;0.000;2022-07-29T14:45:16;11.47;;;2.87;;
28958;SDS011;16066;0.000;0.000;2022-07-29T14:47:42;9.70;;;2.10;;
28958;SDS011;16066;0.000;0.000;2022-07-29T14:50:08;3.93;;;2.50;;
28958;SDS011;16066;0.000;0.000;2022-07-29T14:52:34;9.20;;;2.53;;
28958;SDS011;16066;0.000;0.000;2022-07-29T14:54:59;4.27;;;2.50;;
28958;SDS011;16066;0.000;0.000;2022-07-29T14:57:25;9.53;;;2.80;;
28958;SDS011;16066;0.000;0.000;2022-07-29T14:59:51;16.20;;;3.43;;
28958;SDS011;16066;0.000;0.000;2022-07-29T15:02:16;6.63;;;3.20;;
28958;SDS011;16066;0.000;0.000;2022-07-29T15:04:42;10.67;;;2.50;;
28958;SDS011;16066;0.000;0.000;2022-07-29T15:07:09;7.50;;;2.77;;
28958;SDS011;16066;0.000;0.000;2022-07-29T15:09:34;8.33;;;2.60;;
28958;SDS011;16066;0.000;0.000;2022-07-29T15:12:00;7.13;;;2.33;;
28958;SDS011;16066;0.000;0.000;2022-07-29T15:14:27;4.97;;;2.60;;
28958;SDS011;16066;0.000;0.000;2022-07-29T15:16:53;7.50;;;2.80;;
28958;SDS011;16066;0.000;0.000;2022-07-29T15:19:18;10.53;;;3.20;;
28958;SDS011;16066;0.000;0.000;2022-07-29T15:21:44;10.30;;;3.07;;
28958;SDS011;16066;0.000;0.000;2022-07-29T15:24:09;4.93;;;2.73;;
28958;SDS011;16066;0.000;0.000;2022-07-29T15:26:35;4.80;;;2.80;;
28958;SDS011;16066;0.000;0.000;2022-07-29T15:29:01;7.03;;;2.67;;
28958;SDS011;16066;0.000;0.000;2022-07-29T15:31:26;2.80;;;2.47;;
28958;SDS011;16066;0.000;0.000;2022-07-29T15:33:52;10.10;;;2.57;;
28958;SDS011;16066;0.000;0.000;2022-07-29T15:36:17;6.97;;;2.23;;
28958;SDS011;16066;0.000;0.000;2022-07-29T15:38:43;5.20;;;2.60;;
28958;SDS011;16066;0.000;0.000;2022-07-29T15:41:12;10.87;;;2.70;;
28958;SDS011;16066;0.000;0.000;2022-07-29T15:43:40;12.63;;;2.90;;
28958;SDS011;16066;0.000;0.000;2022-07-29T15:46:08;9.13;;;2.60;;
28958;SDS011;16066;0.000;0.000;2022-07-29T15:48:55;8.73;;;2.87;;
28958;SDS011;16066;0.000;0.000;2022-07-29T15:51:21;6.40;;;2.10;;
28958;SDS011;16066;0.000;0.000;2022-07-29T15:53:47;4.67;;;2.30;;
28958;SDS011;16066;0.000;0.000;2022-07-29T15:56:12;6.13;;;2.67;;